Flight Track Log - Related Links

Times and Time Zones

All times are in EDT time to prevent confusion due to time zone crossing. See the ASQ5685 flight status page for this flight to view local times or setup timezone preferences in your user account.

Time Position Orientation Groundspeed Altitude Reporting Facility
EDT Latitude Longitude Course Direction KTS MPH feet Rate Location/Type
Sat 09:35:42 AM 33.6286 -84.4853 53° Northeast 392 451 2,500  Level Atlanta Center
Sat 09:36:42 AM 33.6011 -84.5575 245° Southwest 272 313 4,500 2,200 Climbing Atlanta Center
Sat 09:37:42 AM 33.5300 -84.5894 201° Southwest 243 280 6,900 2,300 Climbing Atlanta Center
Sat 09:38:00 AM 33.7674 -83.9490 54° Northeast  Level FlightAware Approximate
Sat 09:38:42 AM 33.4614 -84.5417 150° Southeast 292 336 9,100  Level Atlanta Center
Sat 09:39:00 AM 33.8283 -83.8474 54° Northeast  Level FlightAware Approximate
Sat 09:40:00 AM 33.8925 -83.7489 48° Northeast  Level FlightAware Approximate
Sat 09:40:42 AM 33.4558 -84.3375 92° East 333 383 12,200  Level Atlanta Center
Sat 09:41:00 AM 33.9576 -83.6512 53° Northeast  Level FlightAware Approximate
Sat 09:41:42 AM 33.5103 -84.2406 56° Northeast 343 395 13,400  Level Atlanta Center
Sat 09:42:42 AM 33.6042 -84.1811 28° Northeast 343 395 14,900 1,500 Climbing Atlanta Center
Sat 09:43:42 AM 33.6961 -84.1186 29° Northeast 365 420 16,400 1,250 Climbing Atlanta Center
Sat 09:44:42 AM 33.7692 -84.0239 47° Northeast 377 434 17,400 1,000 Climbing Atlanta Center
Sat 09:45:42 AM 33.8297 -83.9114 57° Northeast 384 442 18,400 900 Climbing Atlanta Center
Sat 09:46:42 AM 33.8858 -83.7936 60° Northeast 399 459 19,200 700 Climbing Atlanta Center
Sat 09:47:42 AM 33.9522 -83.6756 56° Northeast 417 480 19,800 650 Climbing Atlanta Center
Sat 09:48:42 AM 34.0250 -83.5625 52° Northeast 423 487 20,500 700 Climbing Atlanta Center
Sat 09:49:42 AM 34.0975 -83.4442 53° Northeast 429 494 21,200 750 Climbing Atlanta Center
Sat 09:50:42 AM 34.1678 -83.3308 53° Northeast 429 494 22,000 650 Climbing Atlanta Center
Sat 09:51:42 AM 34.2339 -83.2272 52° Northeast 429 494 22,500 650 Climbing Atlanta Center
Sat 09:52:42 AM 34.3042 -83.1108 54° Northeast 429 494 23,300 750 Climbing Atlanta Center
Sat 09:53:42 AM 34.3742 -82.9944 54° Northeast 434 499 24,000 700 Climbing Atlanta Center
Sat 09:54:42 AM 34.4461 -82.8800 53° Northeast 429 494 24,700 700 Climbing Atlanta Center
Sat 09:55:42 AM 34.5181 -82.7681 52° Northeast 419 482 25,400 600 Climbing Atlanta Center
Sat 09:56:42 AM 34.5878 -82.6561 53° Northeast 414 476 25,900 500 Climbing Atlanta Center
Sat 09:57:42 AM 34.6575 -82.5464 52° Northeast 414 476 26,400 500 Climbing Atlanta Center
Sat 09:58:42 AM 34.7292 -82.4314 53° Northeast 414 476 26,900 300 Climbing Atlanta Center
Sat 09:59:42 AM 34.7986 -82.3111 55° Northeast 421 484 27,000 50 Climbing Atlanta Center
Sat 10:00:42 AM 34.8678 -82.2008 53° Northeast 421 484 27,000  Level Atlanta Center
Sat 10:01:42 AM 34.9369 -82.0903 53° Northeast 415 478 27,000 -50 Level Atlanta Center
Sat 10:02:42 AM 35.0042 -81.9747 55° Northeast 415 478 26,900  Descending Atlanta Center
Sat 10:03:42 AM 35.0625 -81.8592 58° Northeast 409 471 27,000 50 Climbing Atlanta Center
Sat 10:04:42 AM 35.1081 -81.7283 67° East 404 465 27,000  Level Atlanta Center
Sat 10:05:42 AM 35.1556 -81.5925 67° East 399 459 27,000  Level Atlanta Center
Sat 10:06:42 AM 35.1967 -81.4642 69° East 399 459 27,000  Level Atlanta Center
Sat 10:07:42 AM 35.2506 -81.3403 62° Northeast 399 459 27,000  Level Atlanta Center
Sat 10:08:42 AM 35.3169 -81.2314 53° Northeast 392 451 27,000  Level Atlanta Center
Sat 10:09:42 AM 35.3831 -81.1194 54° Northeast 404 465 27,000  Level Atlanta Center
Sat 10:10:42 AM 35.4492 -81.0075 54° Northeast 409 471 27,000  Level Atlanta Center
Sat 10:12:00 AM 35.5502 -80.9109 58° Northeast  Level Estimated
Sat 10:12:42 AM 35.5811 -80.7806 58° Northeast 409 471 27,000  Level Atlanta Center
Sat 10:13:42 AM 35.6469 -80.6681 54° Northeast 409 471 27,000  Level Atlanta Center
Sat 10:14:42 AM 35.7125 -80.5553 54° Northeast 409 471 27,000  Level Atlanta Center
Sat 10:16:36 AM 35.8364 -80.3422 54° Northeast 404 465 27,000  Level Washington Center
Sat 10:17:37 AM 35.9036 -80.2233 55° Northeast 411 473 27,000  Level Washington Center
Sat 10:18:35 AM 35.9728 -80.1042 54° Northeast 411 473 27,000  Level Washington Center
Sat 10:19:36 AM 36.0397 -79.9922 53° Northeast 412 474 27,000  Level Washington Center
Sat 10:20:37 AM 36.1189 -79.8811 49° Northeast 417 480 27,000  Level Washington Center
Sat 10:21:37 AM 36.1806 -79.7917 49° Northeast 417 480 27,000  Level Washington Center
Sat 10:22:35 AM 36.2728 -79.6575 50° Northeast 433 498 27,000  Level Washington Center
Sat 10:23:36 AM 36.3450 -79.5556 49° Northeast 433 498 27,000  Level Washington Center
Sat 10:24:37 AM 36.4283 -79.4306 50° Northeast 427 491 27,000  Level Washington Center
Sat 10:25:35 AM 36.5003 -79.3308 48° Northeast 427 491 27,000  Level Washington Center
Sat 10:26:35 AM 36.5811 -79.2158 49° Northeast 427 491 27,000  Level Washington Center
Sat 10:27:36 AM 36.6508 -79.1206 48° Northeast 427 491 27,000  Level Washington Center
Sat 10:28:37 AM 36.7358 -78.9922 50° Northeast 427 491 27,000 -298 Level Washington Center
Sat 10:29:37 AM 36.8250 -78.8639 49° Northeast 432 497 26,400 -555 Descending Washington Center
Sat 10:30:36 AM 36.9075 -78.7453 49° Northeast 437 503 25,900 -504 Descending Washington Center
Sat 10:31:36 AM 36.9900 -78.6214 50° Northeast 449 517 25,400 -446 Descending Washington Center
Sat 10:32:37 AM 37.0678 -78.5097 49° Northeast 456 525 25,000 -202 Descending Washington Center
Sat 10:33:35 AM 37.1497 -78.3931 49° Northeast 456 525 25,000 -153 Level Washington Center
Sat 10:34:35 AM 37.2542 -78.2978 36° Northeast 448 516 24,700 -1,140 Descending Washington Center
Sat 10:35:36 AM 37.3711 -78.1947 35° Northeast 458 527 22,700 -1,339 Descending Washington Center
Sat 10:36:36 AM 37.4628 -78.1089 37° Northeast 464 534 22,000 -1,339 Descending Washington Center
Sat 10:37:37 AM 37.5650 -78.0128 37° Northeast 458 527 20,000 -1,966 Descending Washington Center
Sat 10:38:35 AM 37.6625 -77.9239 36° Northeast 452 520 18,100 -1,866 Descending Washington Center
Sat 10:39:36 AM 37.7558 -77.8403 35° Northeast 432 497 16,300 -1,835 Descending Washington Center
Sat 10:40:36 AM 37.8450 -77.7586 36° Northeast 410 472 14,400 -1,884 Descending Washington Center
Sat 10:41:37 AM 37.9300 -77.6794 36° Northeast 391 450 12,500 -1,884 Descending Washington Center
Sat 10:42:37 AM 38.0147 -77.5975 37° Northeast 379 436 10,600 -1,250 Descending Washington Center
Sat 10:43:37 AM 38.0908 -77.5336 33° Northeast 355 409 10,000 -305 Descending Washington Center
Sat 10:44:35 AM 38.1586 -77.4692 37° Northeast 323 372 10,000  Level Washington Center
Sat 10:45:36 AM 38.2303 -77.4183 29° Northeast 303 349 10,000 -248 Level Washington Center
Sat 10:46:36 AM 38.3078 -77.3883 17° North 291 335 9,500 -992 Descending Washington Center
Sat 10:47:37 AM 38.3914 -77.3797 North 286 329 8,000 -1,438 Descending Washington Center
Sat 10:48:37 AM 38.4747 -77.3764 North 291 335 6,600 -1,300 Descending Washington Center
Sat 10:49:37 AM 38.5522 -77.3678 North 286 329 5,400 -1,018 Descending Washington Center
Sat 10:50:29 AM 38.6333 -77.3667 North 274 315 4,700 -750 Descending Potomac TRACON
Sat 10:51:29 AM 38.7000 -77.3667 360° North 292 336 4,000 -350 Descending Potomac TRACON
Sat 10:52:29 AM 38.7833 -77.3500 North 287 330 4,000 -400 Level Potomac TRACON
Sat 10:53:29 AM 38.8667 -77.3500 360° North 286 329 3,200 -500 Descending Potomac TRACON
Sat 10:54:29 AM 38.9500 -77.3500 360° North 272 313 3,000 -150 Descending Potomac TRACON
Sat 10:55:29 AM 39.0167 -77.3500 360° North 217 250 2,900 -500 Descending Potomac TRACON
Sat 10:56:29 AM 39.0667 -77.3667 345° North 211 243 2,000 -550 Descending Potomac TRACON
Sat 10:57:29 AM 39.0500 -77.4167 247° West 174 200 1,800 -350 Descending Potomac TRACON
Sat 10:58:29 AM 39.0000 -77.4333 195° South 174 200 1,300 -600 Descending Potomac TRACON
Sat 10:59:29 AM 38.9667 -77.4333 180° South 134 154 600 -700 Descending Potomac TRACON

Login

Don't have an account? Register now (free) for customized features, flight alerts, and more!